METAR AND TAF INFORMATION
METAR FOR SURV
ADDS - METARS form results

(1241 UTC 19 June 2018)
Data provider http://aviationweather.gov/adds/metars/
 
Forecast for: SURV (RIVERA , UY)
Text: TAF SURV 191130Z 1912/2012 00000KT 3000 BR NSC TX19/1918Z TN07/2010Z
Forecast period: 1200 to 1400 UTC 19 June 2018
Forecast type: FROM: standard forecast or significant change
Winds: calm
Visibility: 1.86 miles (2.99 km)
Clouds: not forecast
Weather: BR  (mist)
Text: BECMG 1914/1916 01010KT CAVOK
Forecast period: 1400 UTC 19 June 2018 to 1200 UTC 20 June 2018
Forecast type: BECOMING: Conditions expected to become as follows by 1600 UTC 19 June 2018
Winds: from the N (10 degrees) at 12 MPH (10 knots; 5.2 m/s)
Visibility: 6 or more miles (10+ km)
Weather: NSW  (no significant weather)

 AIRPORT MAP

 RUNWAY INFORMATION
Runway 05 Runway length 6004 ft Runway width 0 ft
Runway elevation 669 ft Runway displaced threshold 0 ft Runway heading 0
Runway 23 Runway length 6004 ft Runway width 0 ft
Runway elevation 719 ft Runway displaced threshold 0 ft Runway heading 0

 AIRPORT FREQUENCIES

 AIRPORT NEAR NAVIGATION AIDS
Type NDB Name Rivera Frequency 260 KHZ
Type NDB Name Rivera Frequency 305 KHZ



Powered by Virtual Airlines Manager [v2.6.2]